Terminal Aerodrome Forecast
Issued by NWS

Current Version | Previous Version | Graphics & Text | Print | Product List | Glossary On
Versions: 1 2 3 4 5 6 7 8 9 10 11 12 13 14 15 16 17 18 19 20 21 22 23 24 25 26 27 28 29
000
FTUS41 KILN 251700
TAFLUK
TAF
KLUK 251732Z 2518/2618 20014G19KT P6SM VCSH SCT040 BKN100
      TEMPO 2518/2522 -SHRA FEW018 BKN040 OVC080
     FM252300 19006KT P6SM BKN060
     FM261000 16004KT 5SM BR BKN035
     FM261300 20009KT P6SM SCT035=

USA.gov is the U.S. government's official web portal to all federal, state and local government web resources and services.